Time;durP1;ratioP1;P1;durP2;ratioP2;P2;SDS_P1;SDS_P2;PMS_P1;PMS_P2;Temp;Humidity;BMP_temperature;BMP_pressure;BME280_temperature;BME280_humidity;BME280_pressure;Samples;Min_cycle;Max_cycle;Signal;HPM_P1;HPM_P2
2022/07/06 00:01:25;;;;;;;7.65;2.20;;;13.40;99.90;;;;;;5050334;28;20049;-72
2022/07/06 00:03:50;;;;;;;4.05;2.00;;;13.30;99.90;;;;;;5058957;28;20048;-72
2022/07/06 00:06:17;;;;;;;3.47;1.90;;;13.30;99.90;;;;;;5060248;28;20099;-72
2022/07/06 00:08:43;;;;;;;6.28;2.35;;;13.30;99.90;;;;;;5055652;28;20496;-72
2022/07/06 00:11:10;;;;;;;5.22;2.25;;;13.30;99.90;;;;;;5058070;28;20036;-72
2022/07/06 00:13:35;;;;;;;2.60;1.77;;;13.20;99.90;;;;;;5055342;28;20071;-72
2022/07/06 00:16:01;;;;;;;3.60;2.00;;;13.20;99.90;;;;;;5058380;28;20494;-72
2022/07/06 00:18:27;;;;;;;5.00;2.00;;;13.10;99.90;;;;;;5042144;28;20052;-72
2022/07/06 00:20:52;;;;;;;3.88;2.55;;;13.10;99.90;;;;;;5053280;28;20123;-72
2022/07/06 00:23:18;;;;;;;3.45;2.30;;;13.10;99.90;;;;;;5054483;28;20076;-72
2022/07/06 00:25:44;;;;;;;3.70;2.10;;;13.10;99.90;;;;;;5047632;28;20041;-72
2022/07/06 00:28:09;;;;;;;5.28;1.90;;;13.20;99.90;;;;;;5047359;28;20052;-72
2022/07/06 00:30:35;;;;;;;4.80;2.13;;;13.10;99.90;;;;;;5059770;28;20052;-72
2022/07/06 00:33:00;;;;;;;3.47;2.50;;;13.10;99.90;;;;;;5048558;28;20044;-72
2022/07/06 00:35:26;;;;;;;2.78;1.88;;;13.10;99.90;;;;;;5056178;28;20065;-72
2022/07/06 00:37:51;;;;;;;3.10;1.88;;;13.10;99.90;;;;;;5055635;28;20044;-72
2022/07/06 00:40:17;;;;;;;3.88;2.10;;;13.10;99.90;;;;;;5055275;28;20170;-72
2022/07/06 00:42:45;;;;;;;2.92;1.80;;;13.10;99.90;;;;;;5058018;28;21777;-72
2022/07/06 00:45:13;;;;;;;3.65;2.17;;;13.10;99.90;;;;;;5060824;28;20041;-73
2022/07/06 00:47:39;;;;;;;4.35;1.98;;;13.10;99.90;;;;;;5052662;28;20059;-73
2022/07/06 00:50:18;;;;;;;5.32;1.80;;;13.10;99.90;;;;;;5057807;28;20364;-73
2022/07/06 00:52:59;;;;;;;4.68;2.20;;;13.20;99.90;;;;;;5063472;28;20040;-73
2022/07/06 00:55:28;;;;;;;4.00;2.33;;;13.20;99.90;;;;;;5057302;28;20500;-70
2022/07/06 00:57:54;;;;;;;7.70;2.47;;;13.20;99.90;;;;;;5057074;28;20784;-73
2022/07/06 01:00:22;;;;;;;3.33;1.77;;;13.30;99.90;;;;;;5056034;28;20051;-72
2022/07/06 01:02:50;;;;;;;3.50;1.90;;;13.30;99.90;;;;;;5056379;28;20049;-72
2022/07/06 01:05:16;;;;;;;5.32;2.20;;;13.40;99.90;;;;;;5061920;28;20080;-72
2022/07/06 01:07:45;;;;;;;3.58;2.38;;;13.40;99.90;;;;;;5058683;28;20033;-72
2022/07/06 01:10:13;;;;;;;5.45;2.30;;;13.40;99.90;;;;;;5053975;28;20040;-72
2022/07/06 01:12:40;;;;;;;6.57;2.15;;;13.50;99.90;;;;;;5055386;28;20134;-72
2022/07/06 01:15:12;;;;;;;5.90;2.10;;;13.50;99.90;;;;;;5058173;28;20102;-72
2022/07/06 01:17:42;;;;;;;5.20;2.10;;;13.50;99.90;;;;;;5058262;28;20036;-72
2022/07/06 01:20:14;;;;;;;4.65;1.83;;;13.50;99.90;;;;;;5052850;28;20199;-72
2022/07/06 01:22:40;;;;;;;4.72;1.88;;;13.60;99.90;;;;;;5052987;28;20055;-72
2022/07/06 01:25:07;;;;;;;5.22;1.95;;;13.60;99.90;;;;;;5059783;28;20068;-72
2022/07/06 01:27:37;;;;;;;6.07;2.08;;;13.60;99.90;;;;;;5056627;28;20044;-72
2022/07/06 01:30:06;;;;;;;5.88;2.10;;;13.60;99.90;;;;;;5057746;28;20103;-71
2022/07/06 01:32:32;;;;;;;3.55;1.70;;;;;;;;;;5060159;28;20458;-71
2022/07/06 01:34:57;;;;;;;3.55;2.00;;;13.60;99.90;;;;;;5060544;28;20065;-71
2022/07/06 01:37:23;;;;;;;3.60;1.85;;;13.60;99.90;;;;;;5058422;28;20055;-71
2022/07/06 01:39:48;;;;;;;6.13;2.08;;;13.60;99.90;;;;;;5059679;28;20541;-71
2022/07/06 01:42:14;;;;;;;3.45;1.85;;;13.70;99.90;;;;;;5060733;28;20036;-71
2022/07/06 01:44:39;;;;;;;3.20;1.80;;;13.70;99.90;;;;;;5060891;28;20514;-71
2022/07/06 01:47:05;;;;;;;8.43;2.00;;;13.70;99.90;;;;;;5060538;28;21402;-71
2022/07/06 01:49:30;;;;;;;3.38;1.92;;;13.70;99.90;;;;;;5060299;28;20033;-71
2022/07/06 01:51:56;;;;;;;4.75;1.80;;;13.70;99.90;;;;;;5105475;22;20464;-69
2022/07/06 01:54:22;;;;;;;5.15;1.80;;;13.70;99.90;;;;;;5065739;28;20040;-69
2022/07/06 01:56:47;;;;;;;4.05;1.60;;;13.70;99.90;;;;;;5066693;28;20075;-68
2022/07/06 01:59:13;;;;;;;4.20;1.80;;;13.70;99.90;;;;;;5068422;28;20096;-70
2022/07/06 02:01:38;;;;;;;3.50;1.73;;;13.70;99.90;;;;;;5069465;28;20048;-70
2022/07/06 02:04:04;;;;;;;3.05;1.95;;;13.70;99.90;;;;;;5067542;28;20123;-70
2022/07/06 02:06:29;;;;;;;4.40;2.00;;;13.70;99.90;;;;;;5065429;28;20051;-70
2022/07/06 02:08:55;;;;;;;4.07;1.75;;;13.70;99.90;;;;;;5062350;28;20044;-70
2022/07/06 02:11:20;;;;;;;5.68;1.73;;;13.70;99.90;;;;;;5066265;28;20488;-71
2022/07/06 02:13:46;;;;;;;3.83;1.85;;;13.70;99.90;;;;;;5067984;28;20168;-70
2022/07/06 02:16:12;;;;;;;4.00;1.70;;;13.70;99.90;;;;;;5064979;28;20092;-71
2022/07/06 02:18:37;;;;;;;4.97;1.85;;;13.70;99.90;;;;;;5067883;28;20436;-70
2022/07/06 02:21:04;;;;;;;3.30;1.80;;;13.70;99.90;;;;;;5066022;28;20480;-72
2022/07/06 02:23:30;;;;;;;4.60;1.80;;;13.70;99.90;;;;;;5068405;28;20448;-68
2022/07/06 02:25:55;;;;;;;3.75;1.60;;;13.70;99.90;;;;;;5066017;28;20067;-70
2022/07/06 02:28:21;;;;;;;2.38;1.50;;;13.70;99.90;;;;;;5065461;28;20095;-71
2022/07/06 02:30:47;;;;;;;4.15;1.70;;;13.70;99.90;;;;;;5064174;28;20051;-71
2022/07/06 02:33:13;;;;;;;6.03;2.08;;;13.70;99.90;;;;;;5068354;28;20033;-72
2022/07/06 02:35:42;;;;;;;4.25;2.03;;;13.70;99.90;;;;;;5063965;28;20385;-71
2022/07/06 02:38:11;;;;;;;3.92;1.90;;;13.70;99.90;;;;;;5067536;28;20051;-72
2022/07/06 02:40:38;;;;;;;6.07;1.88;;;13.70;99.90;;;;;;5066962;28;20037;-71
2022/07/06 02:43:04;;;;;;;4.67;1.70;;;13.70;99.90;;;;;;5065201;28;20387;-72
2022/07/06 02:45:30;;;;;;;6.78;2.10;;;13.70;99.90;;;;;;5064284;28;20048;-70
2022/07/06 02:47:57;;;;;;;2.83;2.00;;;13.70;99.90;;;;;;5067098;28;20509;-71
2022/07/06 02:50:23;;;;;;;4.80;2.67;;;13.70;99.90;;;;;;5065961;28;20076;-71
2022/07/06 02:52:48;;;;;;;6.00;2.50;;;13.70;99.90;;;;;;5062349;28;20123;-71
2022/07/06 02:55:14;;;;;;;3.22;2.33;;;13.70;99.90;;;;;;5061705;28;20048;-70
2022/07/06 02:57:39;;;;;;;3.53;2.70;;;13.70;99.90;;;;;;5065246;28;20056;-71
2022/07/06 03:00:06;;;;;;;4.65;2.80;;;13.70;99.90;;;;;;5063712;28;20149;-71
2022/07/06 03:02:31;;;;;;;3.55;2.72;;;13.70;99.90;;;;;;5068070;28;20041;-71
2022/07/06 03:04:57;;;;;;;5.03;2.92;;;13.70;99.90;;;;;;5066377;28;20038;-71
2022/07/06 03:07:23;;;;;;;7.13;3.00;;;13.60;99.90;;;;;;5065860;28;20074;-71
2022/07/06 03:09:49;;;;;;;5.55;2.70;;;13.60;99.90;;;;;;5065586;28;20201;-71
2022/07/06 03:12:15;;;;;;;4.50;2.75;;;13.70;99.90;;;;;;5063254;28;20120;-70
2022/07/06 03:14:41;;;;;;;5.25;3.10;;;13.60;99.90;;;;;;5063125;28;20074;-70
2022/07/06 03:17:07;;;;;;;4.20;2.88;;;13.60;99.90;;;;;;5061790;28;20068;-70
2022/07/06 03:19:33;;;;;;;3.72;2.97;;;13.60;99.90;;;;;;5066136;28;20522;-70
2022/07/06 03:21:59;;;;;;;3.70;2.58;;;13.60;99.90;;;;;;5061689;28;20051;-70
2022/07/06 03:24:24;;;;;;;3.97;2.67;;;13.60;99.90;;;;;;5064798;28;20480;-70
2022/07/06 03:26:50;;;;;;;6.20;2.60;;;13.60;99.90;;;;;;5064313;28;20384;-71
2022/07/06 03:29:15;;;;;;;5.55;2.60;;;13.70;99.90;;;;;;5062105;28;20496;-71
2022/07/06 03:31:41;;;;;;;3.28;2.15;;;13.60;99.90;;;;;;5065710;28;20044;-71
2022/07/06 03:34:06;;;;;;;4.28;2.33;;;13.60;99.90;;;;;;5064458;28;20126;-71
2022/07/06 03:36:32;;;;;;;5.45;2.40;;;13.60;99.90;;;;;;5065447;28;20036;-71
2022/07/06 03:38:57;;;;;;;5.32;2.88;;;13.60;99.90;;;;;;5064053;28;20107;-71
2022/07/06 03:41:23;;;;;;;4.55;2.40;;;13.60;99.90;;;;;;5063374;28;20412;-71
2022/07/06 03:43:49;;;;;;;3.13;2.25;;;13.70;99.90;;;;;;5068086;28;20106;-71
2022/07/06 03:46:14;;;;;;;3.03;2.20;;;13.70;99.90;;;;;;5065630;28;20045;-71
2022/07/06 03:48:40;;;;;;;4.18;2.33;;;13.70;99.90;;;;;;5064394;28;20127;-71
2022/07/06 03:51:06;;;;;;;5.65;2.30;;;13.70;99.90;;;;;;5065353;28;20044;-71
2022/07/06 03:53:31;;;;;;;3.13;2.03;;;13.70;99.90;;;;;;5063798;28;20032;-71
2022/07/06 03:58:41;;;;;;;5.47;2.50;;;13.70;99.90;;;;;;5062661;28;20054;-71
2022/07/06 04:01:07;;;;;;;4.03;2.75;;;13.80;99.90;;;;;;5063781;28;20045;-71
2022/07/06 04:03:32;;;;;;;4.00;2.45;;;13.80;99.90;;;;;;5067630;28;20049;-71
2022/07/06 04:05:58;;;;;;;4.13;2.22;;;13.80;99.90;;;;;;5063704;28;20045;-72
2022/07/06 04:08:23;;;;;;;3.22;2.38;;;13.80;99.90;;;;;;5064084;28;20043;-71
2022/07/06 04:10:49;;;;;;;5.78;2.58;;;13.80;99.90;;;;;;5063054;28;20053;-72
2022/07/06 04:13:14;;;;;;;5.53;2.47;;;13.90;99.90;;;;;;5065381;28;20047;-72
2022/07/06 04:15:40;;;;;;;5.90;2.50;;;13.90;99.90;;;;;;5066294;28;20033;-71
2022/07/06 04:18:05;;;;;;;3.35;2.20;;;13.90;99.90;;;;;;5070187;28;20102;-72
2022/07/06 04:20:31;;;;;;;6.13;2.65;;;13.90;99.90;;;;;;5064397;28;20114;-72
2022/07/06 04:22:56;;;;;;;5.65;2.40;;;14.00;99.90;;;;;;5063006;28;20090;-72
2022/07/06 04:25:22;;;;;;;5.35;2.20;;;14.00;99.90;;;;;;5067813;28;20116;-72
2022/07/06 04:27:48;;;;;;;3.50;2.00;;;14.00;99.90;;;;;;5066153;28;20383;-70
2022/07/06 04:30:13;;;;;;;5.20;2.75;;;14.00;99.90;;;;;;5061641;28;20429;-73
2022/07/06 04:32:39;;;;;;;3.85;2.20;;;14.10;99.90;;;;;;5062939;28;20533;-73
2022/07/06 04:35:05;;;;;;;6.55;2.40;;;14.10;99.90;;;;;;5066734;28;20044;-73
2022/07/06 04:37:32;;;;;;;3.78;2.25;;;14.20;99.90;;;;;;5060455;28;20461;-72
2022/07/06 04:39:57;;;;;;;4.10;2.25;;;14.20;99.90;;;;;;5066501;28;20368;-71
2022/07/06 04:42:24;;;;;;;5.70;2.40;;;14.20;99.90;;;;;;5064597;28;20040;-71
2022/07/06 04:44:51;;;;;;;6.13;2.10;;;14.20;99.90;;;;;;5070823;28;20040;-72
2022/07/06 04:47:17;;;;;;;4.22;2.28;;;14.30;99.90;;;;;;5068098;28;20501;-71
2022/07/06 04:49:43;;;;;;;5.35;2.03;;;14.30;99.90;;;;;;5068935;28;20033;-72
2022/07/06 04:52:08;;;;;;;4.88;2.03;;;14.30;99.90;;;;;;5068273;28;20036;-71
2022/07/06 04:54:34;;;;;;;9.02;2.15;;;14.40;99.90;;;;;;5063432;28;20103;-72
2022/07/06 04:56:59;;;;;;;4.22;2.10;;;14.40;99.90;;;;;;5062794;28;20078;-71
2022/07/06 04:59:25;;;;;;;4.35;2.13;;;14.50;99.90;;;;;;5064131;28;21300;-71
2022/07/06 05:01:51;;;;;;;5.05;2.10;;;14.60;99.90;;;;;;5061404;28;20424;-71
2022/07/06 05:04:19;;;;;;;5.68;2.10;;;14.60;99.90;;;;;;5061554;28;20044;-70
2022/07/06 05:06:45;;;;;;;3.45;1.95;;;14.70;99.90;;;;;;5061966;28;20091;-71
2022/07/06 05:09:12;;;;;;;5.45;2.20;;;14.80;99.90;;;;;;5063500;28;20116;-71
2022/07/06 05:11:38;;;;;;;3.65;2.05;;;14.90;99.90;;;;;;5066069;28;20101;-70
2022/07/06 05:14:05;;;;;;;6.88;2.08;;;15.00;99.90;;;;;;5069902;28;20044;-71
2022/07/06 05:16:30;;;;;;;4.50;1.70;;;15.10;99.90;;;;;;5067081;28;20182;-72
2022/07/06 05:18:56;;;;;;;4.28;1.92;;;15.30;99.90;;;;;;5064541;28;20082;-72
2022/07/06 05:21:22;;;;;;;3.55;1.92;;;15.50;99.90;;;;;;5064936;28;20098;-72
2022/07/06 05:23:47;;;;;;;3.97;1.80;;;15.80;99.90;;;;;;5062776;28;20043;-73
2022/07/06 05:26:13;;;;;;;4.57;1.77;;;16.00;99.90;;;;;;5060915;28;20048;-71
2022/07/06 05:28:38;;;;;;;5.25;1.77;;;16.30;99.90;;;;;;5062267;28;20464;-71
2022/07/06 05:31:04;;;;;;;5.28;2.00;;;17.10;99.90;;;;;;5060300;28;20037;-72
2022/07/06 05:33:30;;;;;;;5.07;1.67;;;17.80;99.90;;;;;;5060783;28;20040;-72
2022/07/06 05:35:55;;;;;;;3.75;1.58;;;17.90;99.90;;;;;;5061184;28;20421;-72
2022/07/06 05:38:21;;;;;;;3.95;1.20;;;19.60;99.90;;;;;;5062794;28;20040;-74
2022/07/06 05:40:46;;;;;;;6.75;1.70;;;20.10;99.90;;;;;;5059200;28;20117;-72
2022/07/06 05:43:12;;;;;;;1.98;1.38;;;21.10;99.90;;;;;;5060621;28;20044;-72
2022/07/06 05:45:38;;;;;;;4.85;1.63;;;21.70;99.90;;;;;;5061408;28;20047;-72
2022/07/06 05:50:48;;;;;;;3.55;1.17;;;21.50;99.90;;;;;;5061689;28;20043;-72
2022/07/06 05:53:13;;;;;;;3.05;1.10;;;21.10;99.90;;;;;;5062448;28;20044;-72
2022/07/06 05:55:39;;;;;;;3.45;1.10;;;20.90;99.90;;;;;;5061270;28;20702;-72
2022/07/06 05:58:04;;;;;;;5.00;2.13;;;21.70;99.90;;;;;;5063880;28;20081;-72
2022/07/06 06:00:30;;;;;;;4.38;1.27;;;22.80;99.90;;;;;;5061298;28;20048;-72
2022/07/06 06:02:57;;;;;;;2.70;1.00;;;23.50;99.90;;;;;;5058026;28;20036;-71
2022/07/06 06:05:23;;;;;;;3.90;1.02;;;24.20;99.90;;;;;;5060701;28;20597;-70
2022/07/06 06:07:50;;;;;;;3.20;0.70;;;25.10;99.90;;;;;;5062795;28;20159;-72
2022/07/06 06:10:17;;;;;;;;;;;25.60;97.90;;;;;;5060422;28;20045;-73
2022/07/06 06:12:44;;;;;;;3.22;1.00;;;25.60;95.30;;;;;;5066292;28;19920;-73
2022/07/06 06:15:10;;;;;;;5.15;0.85;;;25.80;95.50;;;;;;5064398;28;20076;-74
2022/07/06 06:17:38;;;;;;;3.40;0.80;;;26.00;93.60;;;;;;5059972;28;20442;-74
2022/07/06 06:20:05;;;;;;;;;;;26.60;92.30;;;;;;5061780;28;20083;-74
2022/07/06 06:22:30;;;;;;;2.70;0.60;;;26.90;90.30;;;;;;5061922;28;19968;-73
2022/07/06 06:24:56;;;;;;;4.57;0.88;;;27.50;87.70;;;;;;5061159;28;20650;-70
2022/07/06 06:27:21;;;;;;;1.83;0.70;;;27.90;85.80;;;;;;5058251;28;20033;-72
2022/07/06 06:29:47;;;;;;;2.25;0.80;;;27.90;81.80;;;;;;5074580;28;20132;-69
2022/07/06 06:32:13;;;;;;;4.13;1.45;;;27.70;78.50;;;;;;5063889;28;20072;-68
2022/07/06 06:34:40;;;;;;;2.90;0.82;;;27.60;79.00;;;;;;5060032;28;20055;-67
2022/07/06 06:37:05;;;;;;;4.00;0.65;;;27.90;81.20;;;;;;5060789;28;20543;-68
2022/07/06 06:39:31;;;;;;;7.00;1.08;;;28.10;77.80;;;;;;5059539;28;20119;-68
2022/07/06 06:41:57;;;;;;;3.65;0.98;;;27.00;76.90;;;;;;5061333;28;20368;-68
2022/07/06 06:44:23;;;;;;;2.28;0.95;;;25.80;77.20;;;;;;5063139;28;20040;-68
2022/07/06 06:46:50;;;;;;;4.28;0.95;;;24.50;78.60;;;;;;5063127;28;20076;-67
2022/07/06 06:49:16;;;;;;;8.80;1.20;;;23.50;80.70;;;;;;5068857;28;20074;-68
2022/07/06 06:51:42;;;;;;;5.45;1.05;;;22.50;82.40;;;;;;5070042;28;20106;-68
2022/07/06 06:54:07;;;;;;;3.17;0.77;;;22.10;86.20;;;;;;5073203;28;20139;-70
2022/07/06 06:56:33;;;;;;;2.40;0.70;;;21.40;86.60;;;;;;5070150;28;20051;-68
2022/07/06 06:58:58;;;;;;;4.35;0.90;;;21.10;88.30;;;;;;5066432;28;20048;-71
2022/07/06 07:01:24;;;;;;;3.20;0.68;;;20.80;91.60;;;;;;5068771;28;20080;-71
2022/07/06 07:03:51;;;;;;;4.22;0.80;;;20.20;89.10;;;;;;5065523;28;20117;-68
2022/07/06 07:06:17;;;;;;;1.67;0.60;;;19.70;90.50;;;;;;5069971;28;20040;-68
2022/07/06 07:08:42;;;;;;;2.63;0.60;;;19.50;90.90;;;;;;5068318;28;20055;-68
2022/07/06 07:11:08;;;;;;;4.13;0.75;;;19.40;91.70;;;;;;5069353;28;20415;-72
2022/07/06 07:13:34;;;;;;;2.92;0.60;;;19.00;92.90;;;;;;5063544;28;20032;-68
2022/07/06 07:15:59;;;;;;;2.67;0.70;;;19.20;93.00;;;;;;5066276;28;20110;-67
2022/07/06 07:18:25;;;;;;;1.23;0.50;;;18.90;93.90;;;;;;5062542;28;20079;-71
2022/07/06 07:20:50;;;;;;;2.67;0.70;;;18.70;93.80;;;;;;5069243;28;20041;-67
2022/07/06 07:23:16;;;;;;;2.58;0.52;;;18.70;94.20;;;;;;5067046;28;20492;-67
2022/07/06 07:25:42;;;;;;;3.38;0.47;;;18.70;95.00;;;;;;5060787;28;20044;-67
2022/07/06 07:28:07;;;;;;;1.98;0.68;;;18.70;95.20;;;;;;5064215;28;20052;-67
2022/07/06 07:30:33;;;;;;;4.40;1.10;;;18.90;96.20;;;;;;5071876;28;20043;-67
2022/07/06 07:33:00;;;;;;;2.13;0.50;;;18.90;96.10;;;;;;5067166;28;20094;-67
2022/07/06 07:35:26;;;;;;;2.60;0.50;;;19.10;96.20;;;;;;5070794;28;20055;-67
2022/07/06 07:37:52;;;;;;;4.47;0.80;;;19.10;95.80;;;;;;5072277;28;20523;-67
2022/07/06 07:40:18;;;;;;;3.28;0.70;;;19.60;96.60;;;;;;5072239;28;20033;-66
2022/07/06 07:42:44;;;;;;;2.47;0.50;;;19.70;95.30;;;;;;5070835;28;20459;-67
2022/07/06 07:45:11;;;;;;;2.58;0.75;;;19.70;95.50;;;;;;5073104;28;20055;-67
2022/07/06 07:47:36;;;;;;;2.35;0.60;;;20.10;95.50;;;;;;5070996;28;20037;-67
2022/07/06 07:50:03;;;;;;;2.58;0.65;;;19.90;95.80;;;;;;5070314;28;20577;-67
2022/07/06 07:52:28;;;;;;;4.30;0.70;;;19.70;94.80;;;;;;5073539;28;20053;-67
2022/07/06 07:54:54;;;;;;;2.58;0.50;;;19.50;95.20;;;;;;5074969;28;20036;-67
2022/07/06 07:57:19;;;;;;;2.63;0.70;;;19.10;95.60;;;;;;5072292;28;20525;-67
2022/07/06 07:59:45;;;;;;;2.60;0.50;;;18.90;95.90;;;;;;5076930;28;20044;-68
2022/07/06 08:02:10;;;;;;;2.17;0.63;;;18.50;96.10;;;;;;5068950;28;20116;-68
2022/07/06 08:04:36;;;;;;;4.18;1.17;;;18.40;96.60;;;;;;5076049;28;20379;-67
2022/07/06 08:07:02;;;;;;;2.65;0.60;;;18.20;97.30;;;;;;5075002;28;20044;-67
2022/07/06 08:09:27;;;;;;;1.83;0.50;;;18.30;97.90;;;;;;5075002;28;20032;-67
2022/07/06 08:11:53;;;;;;;1.85;0.70;;;18.50;98.10;;;;;;5075488;28;20036;-67
2022/07/06 08:14:18;;;;;;;4.00;0.70;;;18.80;98.40;;;;;;5071289;28;20033;-67
2022/07/06 08:16:44;;;;;;;3.63;0.70;;;18.90;97.80;;;;;;5072301;28;20056;-68
2022/07/06 08:19:13;;;;;;;1.95;0.60;;;19.50;97.90;;;;;;5070375;28;20071;-67
2022/07/06 08:21:39;;;;;;;4.88;0.70;;;19.90;96.00;;;;;;5074078;28;20093;-68
2022/07/06 08:24:05;;;;;;;4.00;0.70;;;20.20;98.30;;;;;;5086574;28;20088;-68
2022/07/06 08:26:30;;;;;;;5.40;0.63;;;20.30;95.70;;;;;;5076188;28;20044;-67
2022/07/06 08:28:56;;;;;;;1.30;0.47;;;20.20;95.00;;;;;;5073641;28;20040;-67
2022/07/06 08:31:22;;;;;;;2.88;0.70;;;20.10;95.30;;;;;;5073295;28;20036;-67
2022/07/06 08:33:48;;;;;;;3.67;0.70;;;20.50;95.10;;;;;;5070048;28;20124;-68
2022/07/06 08:36:14;;;;;;;1.92;0.52;;;;;;;;;;5075422;28;20063;-67
2022/07/06 08:38:40;;;;;;;3.25;0.50;;;20.60;94.40;;;;;;5076644;28;20045;-67
2022/07/06 08:41:06;;;;;;;1.67;0.50;;;20.70;94.30;;;;;;5078071;28;20052;-67
2022/07/06 08:43:34;;;;;;;1.77;0.55;;;21.10;94.30;;;;;;5078796;28;20041;-67
2022/07/06 08:46:01;;;;;;;2.47;0.50;;;21.20;94.00;;;;;;5079213;28;20049;-66
2022/07/06 08:48:29;;;;;;;1.90;0.60;;;21.30;93.10;;;;;;5074661;28;20075;-67
2022/07/06 08:50:55;;;;;;;3.22;0.80;;;21.50;92.90;;;;;;5071458;28;20044;-66
2022/07/06 08:53:21;;;;;;;2.55;0.60;;;21.50;92.30;;;;;;5072114;28;20047;-67
2022/07/06 08:55:48;;;;;;;1.45;0.40;;;21.30;92.80;;;;;;5076876;28;20048;-67
2022/07/06 08:58:14;;;;;;;2.15;0.40;;;21.40;92.60;;;;;;5072036;28;20052;-66
2022/07/06 09:00:41;;;;;;;2.65;0.73;;;21.40;92.80;;;;;;5072179;28;20037;-67
2022/07/06 09:03:10;;;;;;;1.73;0.60;;;21.50;92.90;;;;;;5068286;28;20079;-66
2022/07/06 09:05:36;;;;;;;1.48;0.40;;;21.20;92.50;;;;;;5066299;28;20040;-66
2022/07/06 09:08:02;;;;;;;1.73;0.50;;;21.50;93.00;;;;;;5070257;28;20040;-69
2022/07/06 09:10:28;;;;;;;1.77;0.60;;;21.60;93.50;;;;;;5075152;28;20048;-68
2022/07/06 09:13:02;;;;;;;3.60;0.50;;;21.50;93.00;;;;;;5074793;28;20039;-69
2022/07/06 09:15:28;;;;;;;1.15;0.50;;;21.10;92.70;;;;;;5067515;28;20033;-68
2022/07/06 09:17:56;;;;;;;3.43;0.90;;;20.90;93.00;;;;;;5069897;28;20111;-69
2022/07/06 09:20:21;;;;;;;3.17;0.70;;;21.20;94.10;;;;;;5067714;28;20306;-69
2022/07/06 09:22:47;;;;;;;2.20;0.80;;;21.00;93.00;;;;;;5068886;28;20510;-69
2022/07/06 09:25:15;;;;;;;2.50;0.55;;;20.70;92.60;;;;;;5068239;28;20065;-70
2022/07/06 09:27:49;;;;;;;2.47;0.60;;;20.60;93.40;;;;;;5072977;28;20049;-70
2022/07/06 09:30:16;;;;;;;3.65;0.82;;;21.20;94.30;;;;;;5067235;28;20040;-69
2022/07/06 09:32:43;;;;;;;1.85;0.70;;;21.30;93.10;;;;;;5067190;28;20072;-69
2022/07/06 09:35:19;;;;;;;;;;;21.30;94.20;;;;;;5069678;28;20086;-70
2022/07/06 09:37:47;;;;;;;3.60;0.80;;;21.00;93.80;;;;;;5070309;28;19920;-70
2022/07/06 09:40:19;;;;;;;1.88;0.68;;;20.90;93.40;;;;;;5053768;28;20043;-71
2022/07/06 09:42:45;;;;;;;1.88;0.63;;;21.10;93.90;;;;;;5070700;28;20047;-71
2022/07/06 09:45:11;;;;;;;2.38;0.45;;;21.50;92.40;;;;;;5068360;28;20044;-70
2022/07/06 09:47:37;;;;;;;3.33;0.70;;;21.70;95.40;;;;;;5073054;28;20092;-70
2022/07/06 09:50:05;;;;;;;2.90;0.65;;;21.60;92.40;;;;;;5075748;28;20104;-70
2022/07/06 09:52:34;;;;;;;2.25;0.32;;;21.00;91.60;;;;;;5072086;28;20131;-70
2022/07/06 09:55:00;;;;;;;2.75;0.60;;;20.60;92.60;;;;;;5066079;28;20036;-69
2022/07/06 09:57:26;;;;;;;2.65;0.60;;;20.60;93.40;;;;;;5067464;28;20380;-69
2022/07/06 09:59:52;;;;;;;2.13;0.50;;;20.40;93.40;;;;;;5068746;28;20037;-70
2022/07/06 10:02:20;;;;;;;4.65;0.70;;;20.40;96.00;;;;;;5065464;28;20404;-68
2022/07/06 10:04:46;;;;;;;2.55;0.80;;;20.30;94.50;;;;;;5072468;28;20531;-68
2022/07/06 10:07:13;;;;;;;2.53;0.45;;;20.30;94.50;;;;;;5073717;28;20405;-68
2022/07/06 10:09:40;;;;;;;2.72;0.52;;;20.60;94.60;;;;;;5069613;28;20048;-68
2022/07/06 10:12:12;;;;;;;2.58;0.52;;;20.70;94.60;;;;;;5071775;28;20158;-67
2022/07/06 10:14:38;;;;;;;2.33;0.70;;;20.90;94.40;;;;;;5073503;28;20104;-68
2022/07/06 10:17:05;;;;;;;4.63;0.80;;;21.30;94.90;;;;;;5073166;28;20052;-67
2022/07/06 10:19:31;;;;;;;1.85;0.50;;;;;;;;;;5077434;28;20049;-68
2022/07/06 10:22:01;;;;;;;2.33;0.68;;;22.00;93.10;;;;;;5072624;28;20656;-68
2022/07/06 10:24:28;;;;;;;2.50;0.50;;;22.20;92.90;;;;;;5075567;28;20395;-67
2022/07/06 10:26:54;;;;;;;2.95;0.65;;;22.20;92.30;;;;;;5071984;28;20063;-68
2022/07/06 10:29:20;;;;;;;1.80;0.60;;;22.40;92.70;;;;;;5067182;28;20372;-68
2022/07/06 10:31:48;;;;;;;2.80;0.47;;;22.30;92.10;;;;;;5071271;28;20452;-69
2022/07/06 10:34:17;;;;;;;2.22;0.60;;;22.20;91.70;;;;;;5070718;28;20119;-68
2022/07/06 10:36:48;;;;;;;2.38;0.40;;;22.00;92.00;;;;;;5070271;28;20429;-68
2022/07/06 10:41:58;;;;;;;1.02;0.30;;;22.00;90.10;;;;;;5066112;28;20121;-68
2022/07/06 10:44:27;;;;;;;0.98;0.38;;;21.90;90.10;;;;;;5065604;28;20037;-69
2022/07/06 10:46:55;;;;;;;2.05;0.40;;;22.20;89.40;;;;;;5066295;28;20333;-68
2022/07/06 10:49:21;;;;;;;1.00;0.40;;;22.10;85.50;;;;;;5070041;28;20046;-68
2022/07/06 10:51:49;;;;;;;2.00;0.30;;;22.70;88.40;;;;;;5067146;28;20161;-70
2022/07/06 10:54:15;;;;;;;3.03;0.40;;;22.90;90.00;;;;;;5064560;28;20056;-69
2022/07/06 10:56:50;;;;;;;1.90;0.43;;;22.90;86.30;;;;;;5069520;28;20498;-68
2022/07/06 10:59:16;;;;;;;1.13;0.30;;;23.30;88.80;;;;;;5066581;28;20040;-69
2022/07/06 11:02:11;;;;;;;3.00;0.50;;;23.50;89.80;;;;;;5067736;28;20115;-69
2022/07/06 11:04:38;;;;;;;2.15;0.35;;;23.50;86.90;;;;;;5071794;28;20056;-68
2022/07/06 11:07:09;;;;;;;1.88;0.60;;;23.60;87.40;;;;;;5065855;28;20048;-68
2022/07/06 11:09:36;;;;;;;1.90;0.50;;;23.60;87.10;;;;;;5064544;28;20052;-68
2022/07/06 11:12:14;;;;;;;4.53;0.65;;;23.90;86.20;;;;;;5067822;28;20040;-68
2022/07/06 11:14:39;;;;;;;1.10;0.40;;;23.60;87.00;;;;;;5068017;28;20523;-68
2022/07/06 11:17:10;;;;;;;2.40;0.57;;;23.60;87.40;;;;;;5067149;28;20061;-69
2022/07/06 11:19:36;;;;;;;2.50;0.55;;;23.70;84.30;;;;;;5066503;28;20361;-69
2022/07/06 11:22:09;;;;;;;2.55;0.50;;;23.60;86.60;;;;;;5067819;28;20063;-68
2022/07/06 11:24:40;;;;;;;1.55;0.50;;;23.00;85.70;;;;;;5060616;28;20079;-71
2022/07/06 11:27:08;;;;;;;3.03;0.60;;;23.00;88.10;;;;;;5063665;28;20078;-71
2022/07/06 11:29:35;;;;;;;1.13;0.32;;;22.80;87.90;;;;;;5062008;28;20128;-73
2022/07/06 11:32:03;;;;;;;1.45;0.55;;;22.70;87.20;;;;;;5068733;28;20062;-68
2022/07/06 11:34:34;;;;;;;1.25;0.50;;;23.10;87.40;;;;;;5072509;28;20044;-67
2022/07/06 11:37:04;;;;;;;3.25;0.60;;;23.50;88.40;;;;;;5065681;28;20075;-69
2022/07/06 11:39:31;;;;;;;2.38;0.60;;;24.10;90.30;;;;;;5065057;28;20052;-69
2022/07/06 11:41:58;;;;;;;1.35;0.43;;;23.70;82.40;;;;;;5064523;28;20094;-68
2022/07/06 11:44:24;;;;;;;1.45;0.40;;;23.70;83.80;;;;;;5064777;28;20036;-69
2022/07/06 11:46:50;;;;;;;0.65;0.40;;;23.50;81.90;;;;;;5064234;28;20398;-71
2022/07/06 11:49:17;;;;;;;1.63;0.50;;;23.40;83.30;;;;;;5068536;28;20479;-70
2022/07/06 11:51:44;;;;;;;2.47;0.40;;;23.30;83.60;;;;;;5069182;28;20045;-68
2022/07/06 11:54:11;;;;;;;2.65;0.70;;;23.20;85.40;;;;;;5077993;28;20052;-69
2022/07/06 11:56:37;;;;;;;1.25;0.50;;;23.00;84.30;;;;;;5076741;28;20052;-68
2022/07/06 11:59:04;;;;;;;2.58;0.50;;;23.00;84.50;;;;;;5077567;28;20072;-69
2022/07/06 12:01:33;;;;;;;1.95;0.60;;;22.70;85.90;;;;;;5074638;28;20057;-69
2022/07/06 12:04:00;;;;;;;1.42;0.50;;;22.50;85.30;;;;;;5074630;28;20131;-69
2022/07/06 12:06:26;;;;;;;;;;;22.30;86.80;;;;;;5075893;28;20041;-69
2022/07/06 12:08:57;;;;;;;1.80;0.93;;;22.20;86.40;;;;;;5075897;28;19939;-69
2022/07/06 12:11:46;;;;;;;2.75;0.68;;;22.60;87.40;;;;;;5076575;28;20045;-70
2022/07/06 12:14:18;;;;;;;1.20;0.50;;;23.00;87.40;;;;;;5075029;28;20051;-69
2022/07/06 12:16:45;;;;;;;3.70;0.60;;;23.30;87.50;;;;;;5076186;28;20131;-69
2022/07/06 12:19:12;;;;;;;1.25;0.45;;;23.20;86.00;;;;;;5074665;28;20048;-69
2022/07/06 12:21:46;;;;;;;2.95;0.60;;;22.90;84.50;;;;;;5076050;28;20546;-69
2022/07/06 12:24:25;;;;;;;4.78;0.50;;;22.80;86.80;;;;;;5058166;28;20084;-69
2022/07/06 12:26:52;;;;;;;1.75;0.60;;;23.00;86.60;;;;;;5055006;28;20056;-69
2022/07/06 12:29:18;;;;;;;1.52;0.65;;;23.00;87.40;;;;;;5053616;28;20460;-69
2022/07/06 12:31:49;;;;;;;3.67;0.57;;;22.90;87.30;;;;;;5054686;28;20038;-69
2022/07/06 12:34:26;;;;;;;2.33;0.68;;;23.10;85.00;;;;;;5063351;28;20290;-69
2022/07/06 12:36:56;;;;;;;3.63;0.50;;;23.30;86.90;;;;;;5078120;28;20048;-69
2022/07/06 12:39:27;;;;;;;3.55;0.68;;;23.30;85.80;;;;;;5080253;28;20295;-69
2022/07/06 12:41:56;;;;;;;6.28;0.70;;;23.40;85.80;;;;;;5079523;28;20064;-69
2022/07/06 12:44:24;;;;;;;2.40;0.50;;;23.40;86.60;;;;;;5079567;28;20122;-69
2022/07/06 12:47:00;;;;;;;2.80;0.82;;;24.00;87.40;;;;;;5076089;28;20060;-69
2022/07/06 12:49:26;;;;;;;1.02;0.50;;;24.00;83.50;;;;;;5073533;28;20063;-67
2022/07/06 12:52:00;;;;;;;2.38;0.63;;;24.20;85.40;;;;;;5076595;28;20056;-65
2022/07/06 12:54:29;;;;;;;3.70;0.50;;;24.10;82.30;;;;;;5076276;28;20032;-66